Hakuryoumaru No.15 — JD2439 — position and weather

sailwx.info

Track history (hours):
 
Tides and Currents Weather Stations Pressure Air Temp Water Temp Dewpoint Dewpoint Depression Visibility Wind Speed Wind Dir Waves Ship Positions

Hakuryoumaru No.15

Last reported at 2015-Jul-26 05:33 UTC. Time now 2015-Jul-29 09:34 UTC.
Position N 35°05' E 139°36'.

Length 80 m; draft 5.4 m.

Type: Tanker. MMSI: 431000243.

Date/timePositionNaut miles runAvg speedWind from/ knotsBaromVisibWave heightAir tempDewpointWater temp
2015-Jul-26 05:33N 35°05' E 139°36'1212.4
2015-Jul-26 04:33N 35°14' E 139°46'1111.5
2015-Jul-26 03:34N 35°26' E 139°45'1312.8
2015-Jul-26 02:34N 35°30' E 139°60'2 1.8
2015-Jul-26 01:34N 35°30' E 140°02'0 0.0
2015-Jul-26 00:34N 35°30' E 140°02'0 0.0
2015-Jul-25 23:34N 35°30' E 140°02'1 1.4
2015-Jul-25 22:34N 35°30' E 140°00'1 1.1
2015-Jul-25 21:34N 35°31' E 139°60'0 0.0
2015-Jul-25 20:33N 35°31' E 139°60'0 0.0
2015-Jul-25 19:33N 35°31' E 139°60'0 0.0
2015-Jul-25 18:33N 35°31' E 139°60'7 7.0
2015-Jul-25 17:34N 35°28' E 139°52'1212.1
2015-Jul-25 16:32N 35°17' E 139°45'1212.2
2015-Jul-25 15:33N 35°05' E 139°44'1714.7
2015-Jul-25 14:24N 34°55' E 139°28'4614.3
2015-Jul-25 11:10N 34°34' E 138°38'53 1.8
2015-Jul-24 06:26N 35°03' E 139°32'1012.0
2015-Jul-24 05:33N 35°08' E 139°43'1111.3
2015-Jul-24 04:34N 35°20' E 139°43'9 8.6
2015-Jul-24 03:34N 35°28' E 139°40'0 0.0
2015-Jul-24 02:34N 35°28' E 139°40'0 0.0
2015-Jul-24 01:33N 35°28' E 139°40'0 0.0
2015-Jul-24 00:34N 35°28' E 139°40'0 0.0
2015-Jul-23 23:34N 35°28' E 139°40'3 2.6
2015-Jul-23 22:34N 35°26' E 139°43'0 0.0
2015-Jul-23 21:34N 35°26' E 139°43'0 0.0
2015-Jul-23 20:34N 35°26' E 139°43'0 0.0
2015-Jul-23 19:33N 35°26' E 139°43'0 0.0
2015-Jul-23 18:34N 35°26' E 139°43'0 0.0
2015-Jul-23 17:33N 35°26' E 139°43'0 0.0
2015-Jul-23 16:33N 35°26' E 139°43'0 0.0
2015-Jul-23 15:34N 35°26' E 139°43'0 0.0
2015-Jul-23 14:34N 35°26' E 139°43'8 8.0
2015-Jul-23 13:33N 35°18' E 139°44'1312.5
2015-Jul-23 12:33N 35°06' E 139°44'10 0.4
2015-Jul-22 12:23N 35°04' E 139°33'1011.8
2015-Jul-22 11:33N 35°08' E 139°43'1010.4
2015-Jul-22 10:33N 35°19' E 139°44'1010.1
2015-Jul-22 09:33N 35°28' E 139°49'1110.7
2015-Jul-22 08:33N 35°30' E 140°02'0 0.1
2015-Jul-22 07:33N 35°30' E 140°02'0 0.0
2015-Jul-22 06:33N 35°30' E 140°02'0 0.0
2015-Jul-22 05:33N 35°30' E 140°02'1 1.1
2015-Jul-22 04:33N 35°30' E 140°01'2 2.2
2015-Jul-22 03:34N 35°31' E 139°58'1313.0
2015-Jul-22 02:34N 35°23' E 139°46'1212.4
2015-Jul-22 01:33N 35°11' E 139°47'1313.5
2015-Jul-22 00:34N 34°58' E 139°43'5510.7
2015-Jul-21 19:27N 35°26' E 140°40'31 9.9
2015-Jul-21 16:18N 35°57' E 140°42'4 0.3
2015-Jul-21 04:33N 35°53' E 140°41'0 0.0
2015-Jul-21 03:23N 35°53' E 140°41'0 0.0
2015-Jul-21 02:31N 35°53' E 140°41'0 0.0
2015-Jul-21 01:33N 35°53' E 140°41'0 0.0
2015-Jul-21 00:29N 35°53' E 140°41'0 0.0
2015-Jul-20 23:33N 35°53' E 140°41'3 1.0
2015-Jul-20 20:09N 35°57' E 140°42'0 0.0
2015-Jul-20 19:27N 35°57' E 140°42'58 3.6
2015-Jul-20 03:14N 35°02' E 140°16'812.3
2015-Jul-20 02:33N 34°57' E 140°08'20 9.8
2015-Jul-20 00:33N 34°57' E 139°44'1212.2
2015-Jul-19 23:34N 35°09' E 139°45'1212.0
2015-Jul-19 22:34N 35°21' E 139°43'1212.0
2015-Jul-19 21:33N 35°30' E 139°53'6 5.4
2015-Jul-19 20:29N 35°32' E 139°59'0 0.0
2015-Jul-19 19:29N 35°32' E 139°59'0 0.0
2015-Jul-19 18:26N 35°32' E 139°59'0 0.0
2015-Jul-19 17:29N 35°32' E 139°59'0 0.0
2015-Jul-19 16:32N 35°32' E 139°59'0 0.0
2015-Jul-19 15:29N 35°32' E 139°59'0 0.0
2015-Jul-19 14:26N 35°32' E 139°59'0 0.0
2015-Jul-19 13:32N 35°32' E 139°59'0 0.0
2015-Jul-19 12:33N 35°32' E 139°59'0 0.0
2015-Jul-19 11:33N 35°32' E 139°59'0 0.0
2015-Jul-19 10:34N 35°32' E 139°59'0 0.0
2015-Jul-19 09:34N 35°32' E 139°59'0 0.0
2015-Jul-19 08:33N 35°32' E 139°59'0 0.0
2015-Jul-19 07:33N 35°32' E 139°59'0 0.0
2015-Jul-19 06:33N 35°32' E 139°59'0 0.0
2015-Jul-19 05:33N 35°32' E 139°59'0 0.0
2015-Jul-19 04:34N 35°32' E 139°59'0 0.0
2015-Jul-19 00:34N 35°32' E 139°59'0 0.1
2015-Jul-18 23:34N 35°32' E 139°59'0 0.0
2015-Jul-18 22:33N 35°32' E 139°59'0 0.0
2015-Jul-18 21:34N 35°32' E 139°59'0 0.0
2015-Jul-18 20:33N 35°32' E 139°59'0 0.0
2015-Jul-18 19:33N 35°32' E 139°59'0 0.0
2015-Jul-18 18:33N 35°32' E 139°59'0 0.0
2015-Jul-18 17:31N 35°32' E 139°59'0 0.0
2015-Jul-18 16:32N 35°32' E 139°59'0 0.0
2015-Jul-18 15:31N 35°32' E 139°59'0 0.0
2015-Jul-18 14:33N 35°32' E 139°59'0 0.0
2015-Jul-18 13:33N 35°32' E 139°59'0 0.0
2015-Jul-18 12:32N 35°32' E 139°59'0 0.0
2015-Jul-18 11:34N 35°32' E 139°59'0 0.0
2015-Jul-18 10:32N 35°32' E 139°59'0 0.0
2015-Jul-18 09:33N 35°32' E 139°59'0 0.0
2015-Jul-18 08:31N 35°32' E 139°59'0 0.0
2015-Jul-18 07:33N 35°32' E 139°59'0 0.0
2015-Jul-18 06:33N 35°32' E 139°59'0 0.0
2015-Jul-18 05:34N 35°32' E 139°59'0 0.0
2015-Jul-18 04:33N 35°32' E 139°59'0 0.0
2015-Jul-18 03:34N 35°32' E 139°59'0 0.0
2015-Jul-18 02:31N 35°32' E 139°59'0 0.0
2015-Jul-18 01:33N 35°32' E 139°59'0 0.0
2015-Jul-18 00:33N 35°32' E 139°59'0 0.0
2015-Jul-17 23:28N 35°32' E 139°59'0 0.0
2015-Jul-17 22:33N 35°32' E 139°59'0 0.0
2015-Jul-17 21:32N 35°32' E 139°59'0 0.0
2015-Jul-17 20:31N 35°32' E 139°59'0 0.0
2015-Jul-17 19:31N 35°32' E 139°59'0 0.0
2015-Jul-17 18:33N 35°32' E 139°59'0 0.0
2015-Jul-17 17:29N 35°32' E 139°59'0 0.0
2015-Jul-17 16:31N 35°32' E 139°59'0 0.0
2015-Jul-17 15:33N 35°32' E 139°59'0 0.0
2015-Jul-17 14:33N 35°32' E 139°59'0 0.1
2015-Jul-17 13:30N 35°32' E 139°59'0 0.1
2015-Jul-17 12:32N 35°32' E 139°59'0 0.0
2015-Jul-17 11:33N 35°32' E 139°59'0 0.0
2015-Jul-17 10:30N 35°32' E 139°59'0 0.0
2015-Jul-17 09:30N 35°32' E 139°59'0 0.0
2015-Jul-17 08:27N 35°32' E 139°59'0 0.0
2015-Jul-17 07:29N 35°32' E 139°59'0 0.0
2015-Jul-17 06:27N 35°32' E 139°59'0 0.0
2015-Jul-17 05:33N 35°32' E 139°59'0 0.0
2015-Jul-17 04:33N 35°32' E 139°59'0 0.0
2015-Jul-17 03:30N 35°32' E 139°59'0 0.1
2015-Jul-17 02:33N 35°32' E 139°59'0 0.1
2015-Jul-17 01:33N 35°32' E 139°59'0 0.0
2015-Jul-17 00:33N 35°32' E 139°59'0 0.0
2015-Jul-16 23:23N 35°32' E 139°59'0 0.0
2015-Jul-16 22:28N 35°32' E 139°59'0 0.1
2015-Jul-16 21:33N 35°32' E 139°59'0 0.0
2015-Jul-16 20:34N 35°32' E 139°59'0 0.0
2015-Jul-16 19:31N 35°32' E 139°59'0 0.1
2015-Jul-16 18:32N 35°32' E 139°59'0 0.0
2015-Jul-16 17:26N 35°32' E 139°59'0 0.0
2015-Jul-16 16:32N 35°32' E 139°59'0 0.0
2015-Jul-16 15:22N 35°32' E 139°59'0 0.1
2015-Jul-16 14:33N 35°32' E 139°59'0 0.0
2015-Jul-16 13:30N 35°32' E 139°59'0 0.0
2015-Jul-16 12:27N 35°32' E 139°59'0 0.0
2015-Jul-16 11:24N 35°32' E 139°59'0 0.0
2015-Jul-16 10:27N 35°32' E 139°59'0 0.0
2015-Jul-16 09:21N 35°32' E 139°59'0 0.1
2015-Jul-16 08:24N 35°32' E 139°59'1 1.6
2015-Jul-16 07:31N 35°31' E 140°00'2 1.6
2015-Jul-16 06:33N 35°30' E 140°02'  
Track history (hours):
 
Tides and Currents Weather Stations Pressure Air Temp Water Temp Dewpoint Dewpoint Depression Visibility Wind Speed Wind Dir Waves Ship Positions

Hakuryoumaru No.15

Last reported at 2015-Jul-26 05:33 UTC. Time now 2015-Jul-29 09:34 UTC.
Position N 35°05' E 139°36'.

Length 80 m; draft 5.4 m.

Type: Tanker. MMSI: 431000243.

Date/timePositionNaut miles runAvg speedWind from/ knotsBaromVisibWave heightAir tempDewpointWater temp
2015-Jul-26 05:33N 35°05' E 139°36'1212.4
2015-Jul-26 04:33N 35°14' E 139°46'1111.5
2015-Jul-26 03:34N 35°26' E 139°45'1312.8
2015-Jul-26 02:34N 35°30' E 139°60'2 1.8
2015-Jul-26 01:34N 35°30' E 140°02'0 0.0
2015-Jul-26 00:34N 35°30' E 140°02'0 0.0
2015-Jul-25 23:34N 35°30' E 140°02'1 1.4
2015-Jul-25 22:34N 35°30' E 140°00'1 1.1
2015-Jul-25 21:34N 35°31' E 139°60'0 0.0
2015-Jul-25 20:33N 35°31' E 139°60'0 0.0
2015-Jul-25 19:33N 35°31' E 139°60'0 0.0
2015-Jul-25 18:33N 35°31' E 139°60'7 7.0
2015-Jul-25 17:34N 35°28' E 139°52'1212.1
2015-Jul-25 16:32N 35°17' E 139°45'1212.2
2015-Jul-25 15:33N 35°05' E 139°44'1714.7
2015-Jul-25 14:24N 34°55' E 139°28'4614.3
2015-Jul-25 11:10N 34°34' E 138°38'53 1.8
2015-Jul-24 06:26N 35°03' E 139°32'1012.0
2015-Jul-24 05:33N 35°08' E 139°43'1111.3
2015-Jul-24 04:34N 35°20' E 139°43'9 8.6
2015-Jul-24 03:34N 35°28' E 139°40'0 0.0
2015-Jul-24 02:34N 35°28' E 139°40'0 0.0
2015-Jul-24 01:33N 35°28' E 139°40'0 0.0
2015-Jul-24 00:34N 35°28' E 139°40'0 0.0
2015-Jul-23 23:34N 35°28' E 139°40'3 2.6
2015-Jul-23 22:34N 35°26' E 139°43'0 0.0
2015-Jul-23 21:34N 35°26' E 139°43'0 0.0
2015-Jul-23 20:34N 35°26' E 139°43'0 0.0
2015-Jul-23 19:33N 35°26' E 139°43'0 0.0
2015-Jul-23 18:34N 35°26' E 139°43'0 0.0
2015-Jul-23 17:33N 35°26' E 139°43'0 0.0
2015-Jul-23 16:33N 35°26' E 139°43'0 0.0
2015-Jul-23 15:34N 35°26' E 139°43'0 0.0
2015-Jul-23 14:34N 35°26' E 139°43'8 8.0
2015-Jul-23 13:33N 35°18' E 139°44'1312.5
2015-Jul-23 12:33N 35°06' E 139°44'10 0.4
2015-Jul-22 12:23N 35°04' E 139°33'1011.8
2015-Jul-22 11:33N 35°08' E 139°43'1010.4
2015-Jul-22 10:33N 35°19' E 139°44'1010.1
2015-Jul-22 09:33N 35°28' E 139°49'1110.7
2015-Jul-22 08:33N 35°30' E 140°02'0 0.1
2015-Jul-22 07:33N 35°30' E 140°02'0 0.0
2015-Jul-22 06:33N 35°30' E 140°02'0 0.0
2015-Jul-22 05:33N 35°30' E 140°02'1 1.1
2015-Jul-22 04:33N 35°30' E 140°01'2 2.2
2015-Jul-22 03:34N 35°31' E 139°58'1313.0
2015-Jul-22 02:34N 35°23' E 139°46'1212.4
2015-Jul-22 01:33N 35°11' E 139°47'1313.5
2015-Jul-22 00:34N 34°58' E 139°43'5510.7
2015-Jul-21 19:27N 35°26' E 140°40'31 9.9
2015-Jul-21 16:18N 35°57' E 140°42'4 0.3
2015-Jul-21 04:33N 35°53' E 140°41'0 0.0
2015-Jul-21 03:23N 35°53' E 140°41'0 0.0
2015-Jul-21 02:31N 35°53' E 140°41'0 0.0
2015-Jul-21 01:33N 35°53' E 140°41'0 0.0
2015-Jul-21 00:29N 35°53' E 140°41'0 0.0
2015-Jul-20 23:33N 35°53' E 140°41'3 1.0
2015-Jul-20 20:09N 35°57' E 140°42'0 0.0
2015-Jul-20 19:27N 35°57' E 140°42'58 3.6
2015-Jul-20 03:14N 35°02' E 140°16'812.3
2015-Jul-20 02:33N 34°57' E 140°08'20 9.8
2015-Jul-20 00:33N 34°57' E 139°44'1212.2
2015-Jul-19 23:34N 35°09' E 139°45'1212.0
2015-Jul-19 22:34N 35°21' E 139°43'1212.0
2015-Jul-19 21:33N 35°30' E 139°53'6 5.4
2015-Jul-19 20:29N 35°32' E 139°59'0 0.0
2015-Jul-19 19:29N 35°32' E 139°59'0 0.0
2015-Jul-19 18:26N 35°32' E 139°59'0 0.0
2015-Jul-19 17:29N 35°32' E 139°59'0 0.0
2015-Jul-19 16:32N 35°32' E 139°59'0 0.0
2015-Jul-19 15:29N 35°32' E 139°59'0 0.0
2015-Jul-19 14:26N 35°32' E 139°59'0 0.0
2015-Jul-19 13:32N 35°32' E 139°59'0 0.0
2015-Jul-19 12:33N 35°32' E 139°59'0 0.0
2015-Jul-19 11:33N 35°32' E 139°59'0 0.0
2015-Jul-19 10:34N 35°32' E 139°59'0 0.0
2015-Jul-19 09:34N 35°32' E 139°59'0 0.0
2015-Jul-19 08:33N 35°32' E 139°59'0 0.0
2015-Jul-19 07:33N 35°32' E 139°59'0 0.0
2015-Jul-19 06:33N 35°32' E 139°59'0 0.0
2015-Jul-19 05:33N 35°32' E 139°59'0 0.0
2015-Jul-19 04:34N 35°32' E 139°59'0 0.0
2015-Jul-19 00:34N 35°32' E 139°59'0 0.1
2015-Jul-18 23:34N 35°32' E 139°59'0 0.0
2015-Jul-18 22:33N 35°32' E 139°59'0 0.0
2015-Jul-18 21:34N 35°32' E 139°59'0 0.0
2015-Jul-18 20:33N 35°32' E 139°59'0 0.0
2015-Jul-18 19:33N 35°32' E 139°59'0 0.0
2015-Jul-18 18:33N 35°32' E 139°59'0 0.0
2015-Jul-18 17:31N 35°32' E 139°59'0 0.0
2015-Jul-18 16:32N 35°32' E 139°59'0 0.0
2015-Jul-18 15:31N 35°32' E 139°59'0 0.0
2015-Jul-18 14:33N 35°32' E 139°59'0 0.0
2015-Jul-18 13:33N 35°32' E 139°59'0 0.0
2015-Jul-18 12:32N 35°32' E 139°59'0 0.0
2015-Jul-18 11:34N 35°32' E 139°59'0 0.0
2015-Jul-18 10:32N 35°32' E 139°59'0 0.0
2015-Jul-18 09:33N 35°32' E 139°59'0 0.0
2015-Jul-18 08:31N 35°32' E 139°59'0 0.0
2015-Jul-18 07:33N 35°32' E 139°59'0 0.0
2015-Jul-18 06:33N 35°32' E 139°59'0 0.0
2015-Jul-18 05:34N 35°32' E 139°59'0 0.0
2015-Jul-18 04:33N 35°32' E 139°59'0 0.0
2015-Jul-18 03:34N 35°32' E 139°59'0 0.0
2015-Jul-18 02:31N 35°32' E 139°59'0 0.0
2015-Jul-18 01:33N 35°32' E 139°59'0 0.0
2015-Jul-18 00:33N 35°32' E 139°59'0 0.0
2015-Jul-17 23:28N 35°32' E 139°59'0 0.0
2015-Jul-17 22:33N 35°32' E 139°59'0 0.0
2015-Jul-17 21:32N 35°32' E 139°59'0 0.0
2015-Jul-17 20:31N 35°32' E 139°59'0 0.0
2015-Jul-17 19:31N 35°32' E 139°59'0 0.0
2015-Jul-17 18:33N 35°32' E 139°59'0 0.0
2015-Jul-17 17:29N 35°32' E 139°59'0 0.0
2015-Jul-17 16:31N 35°32' E 139°59'0 0.0
2015-Jul-17 15:33N 35°32' E 139°59'0 0.0
2015-Jul-17 14:33N 35°32' E 139°59'0 0.1
2015-Jul-17 13:30N 35°32' E 139°59'0 0.1
2015-Jul-17 12:32N 35°32' E 139°59'0 0.0
2015-Jul-17 11:33N 35°32' E 139°59'0 0.0
2015-Jul-17 10:30N 35°32' E 139°59'0 0.0
2015-Jul-17 09:30N 35°32' E 139°59'0 0.0
2015-Jul-17 08:27N 35°32' E 139°59'0 0.0
2015-Jul-17 07:29N 35°32' E 139°59'0 0.0
2015-Jul-17 06:27N 35°32' E 139°59'0 0.0
2015-Jul-17 05:33N 35°32' E 139°59'0 0.0
2015-Jul-17 04:33N 35°32' E 139°59'0 0.0
2015-Jul-17 03:30N 35°32' E 139°59'0 0.1
2015-Jul-17 02:33N 35°32' E 139°59'0 0.1
2015-Jul-17 01:33N 35°32' E 139°59'0 0.0
2015-Jul-17 00:33N 35°32' E 139°59'0 0.0
2015-Jul-16 23:23N 35°32' E 139°59'0 0.0
2015-Jul-16 22:28N 35°32' E 139°59'0 0.1
2015-Jul-16 21:33N 35°32' E 139°59'0 0.0
2015-Jul-16 20:34N 35°32' E 139°59'0 0.0
2015-Jul-16 19:31N 35°32' E 139°59'0 0.1
2015-Jul-16 18:32N 35°32' E 139°59'0 0.0
2015-Jul-16 17:26N 35°32' E 139°59'0 0.0
2015-Jul-16 16:32N 35°32' E 139°59'0 0.0
2015-Jul-16 15:22N 35°32' E 139°59'0 0.1
2015-Jul-16 14:33N 35°32' E 139°59'0 0.0
2015-Jul-16 13:30N 35°32' E 139°59'0 0.0
2015-Jul-16 12:27N 35°32' E 139°59'0 0.0
2015-Jul-16 11:24N 35°32' E 139°59'0 0.0
2015-Jul-16 10:27N 35°32' E 139°59'0 0.0
2015-Jul-16 09:21N 35°32' E 139°59'0 0.1
2015-Jul-16 08:24N 35°32' E 139°59'1 1.6
2015-Jul-16 07:31N 35°31' E 140°00'2 1.6
2015-Jul-16 06:33N 35°30' E 140°02'  

Dump ship's entire track history